Time;durP1;ratioP1;P1;durP2;ratioP2;P2;SDS_P1;SDS_P2;PMS_P1;PMS_P2;Temp;Humidity;BMP_temperature;BMP_pressure;BME280_temperature;BME280_humidity;BME280_pressure;Samples;Min_cycle;Max_cycle;Signal;HPM_P1;HPM_P2
2023/01/12 07:44:33;;;;;;;5.57;1.38;;;;;;;6.44;100.00;99164.97;5067983;28;20051;-83
2023/01/12 07:47:00;;;;;;;5.97;1.30;;;;;;;6.58;100.00;99173.50;5070605;28;20408;-83
2023/01/12 07:49:27;;;;;;;6.72;0.95;;;;;;;6.60;100.00;99171.50;5075553;28;20068;-83
2023/01/12 07:51:54;;;;;;;6.13;1.55;;;;;;;6.61;100.00;99167.75;5082431;28;20048;-82
2023/01/12 07:54:21;;;;;;;6.30;1.23;;;;;;;6.69;100.00;99173.22;5092828;28;20079;-83
2023/01/12 07:56:49;;;;;;;8.93;1.30;;;;;;;6.76;100.00;99162.63;5088536;28;20052;-82
2023/01/12 07:59:16;;;;;;;5.50;1.35;;;;;;;6.83;100.00;99169.09;5088108;28;20427;-83
2023/01/12 08:01:43;;;;;;;11.68;1.83;;;;;;;6.83;100.00;99151.00;5079585;28;20045;-82
2023/01/12 08:04:09;;;;;;;6.07;1.10;;;;;;;6.88;100.00;99142.41;5087044;28;20505;-83
2023/01/12 08:06:36;;;;;;;5.97;1.40;;;;;;;6.93;99.62;99152.75;5090505;28;20048;-83
2023/01/12 08:09:03;;;;;;;4.85;1.10;;;;;;;6.91;100.00;99152.94;5088795;28;20044;-83
2023/01/12 08:11:30;;;;;;;6.65;1.40;;;;;;;6.85;99.17;99135.50;5067413;28;20051;-82
2023/01/12 08:13:58;;;;;;;13.25;2.80;;;;;;;6.87;99.27;99146.16;5067045;28;20056;-82
2023/01/12 08:16:29;;;;;;;5.88;1.15;;;;;;;6.99;100.00;99165.63;5067736;28;20045;-82
2023/01/12 08:21:52;;;;;;;3.83;1.13;;;;;;;7.06;99.61;99161.25;5085621;28;20137;-83
2023/01/12 08:24:23;;;;;;;15.25;1.30;;;;;;;6.98;100.00;99143.13;5070013;28;20051;-82
2023/01/12 08:26:54;;;;;;;2.38;0.70;;;;;;;7.02;99.70;99147.22;5087594;28;20047;-83
2023/01/12 08:29:30;;;;;;;4.10;1.10;;;;;;;6.90;99.97;99122.34;5087786;28;20110;-83
2023/01/12 08:31:58;;;;;;;2.78;0.88;;;;;;;7.08;100.00;99143.03;5087376;28;20048;-83
2023/01/12 08:34:24;;;;;;;6.25;2.08;;;;;;;7.05;100.00;99146.88;5087072;28;20130;-83
2023/01/12 08:36:51;;;;;;;6.40;1.02;;;;;;;7.03;100.00;99140.81;5086267;28;20495;-83
2023/01/12 08:39:18;;;;;;;3.45;1.45;;;;;;;7.10;100.00;99146.41;5070378;28;20127;-83
2023/01/12 08:41:44;;;;;;;7.95;1.55;;;;;;;6.95;99.71;99134.53;5065209;28;20048;-83
2023/01/12 08:44:11;;;;;;;5.57;1.38;;;;;;;6.97;100.00;99143.31;5066180;28;20059;-83
2023/01/12 08:46:46;;;;;;;4.18;0.90;;;;;;;6.95;100.00;99138.06;5066429;28;20549;-83
2023/01/12 08:49:13;;;;;;;6.00;1.27;;;;;;;7.05;100.00;99157.69;5066864;28;20055;-83
2023/01/12 08:51:40;;;;;;;7.13;0.98;;;;;;;6.96;100.00;99137.06;5059496;28;20114;-83
2023/01/12 08:54:09;;;;;;;7.65;1.13;;;;;;;6.85;100.00;99138.19;5051561;28;20068;-84
2023/01/12 08:56:35;;;;;;;10.77;1.63;;;;;;;6.96;100.00;99147.88;5053094;28;20041;-84
2023/01/12 08:59:03;;;;;;;11.20;1.70;;;;;;;6.83;100.00;99133.94;5053704;28;20051;-83
2023/01/12 09:01:30;;;;;;;12.68;1.38;;;;;;;6.94;99.62;99157.13;5052775;28;20484;-83
2023/01/12 09:03:59;;;;;;;5.45;1.20;;;;;;;6.94;100.00;99162.53;5052922;28;20060;-84
2023/01/12 09:06:27;;;;;;;7.85;1.10;;;;;;;6.96;99.68;99166.78;5053274;28;20131;-84
2023/01/12 09:08:54;;;;;;;6.60;0.95;;;;;;;7.04;98.86;99166.81;5054056;28;20159;-84
2023/01/12 09:11:21;;;;;;;4.85;1.23;;;;;;;6.86;98.76;99139.03;5052193;28;20098;-84
2023/01/12 09:13:48;;;;;;;5.45;0.90;;;;;;;7.06;98.64;99159.41;5052514;28;20045;-83
2023/01/12 09:16:17;;;;;;;7.85;2.45;;;;;;;7.15;100.00;99163.00;5053190;28;20412;-84
2023/01/12 09:18:44;;;;;;;9.18;1.58;;;;;;;7.09;97.95;99164.50;5052977;28;20158;-83
2023/01/12 09:21:15;;;;;;;9.32;1.02;;;;;;;7.02;98.62;99149.09;5052830;28;20117;-84
2023/01/12 09:23:42;;;;;;;5.80;1.42;;;;;;;7.05;98.45;99146.06;5056151;28;20502;-83
2023/01/12 09:26:11;;;;;;;9.73;0.95;;;;;;;7.18;96.92;99151.84;5042248;28;20053;-84
2023/01/12 09:28:43;;;;;;;3.93;0.93;;;;;;;7.19;97.47;99158.94;5045156;28;20136;-84
2023/01/12 09:31:12;;;;;;;6.88;1.20;;;;;;;7.33;98.50;99172.84;5052513;28;20306;-84
2023/01/12 09:33:40;;;;;;;1.55;0.88;;;;;;;7.32;97.23;99153.06;5052297;28;20500;-82
2023/01/12 09:36:08;;;;;;;12.85;1.25;;;;;;;7.36;98.38;99164.41;5054518;28;20526;-84
2023/01/12 09:38:38;;;;;;;11.25;1.70;;;;;;;7.35;98.51;99151.91;5046825;28;20054;-83
2023/01/12 09:41:10;;;;;;;5.20;0.95;;;;;;;7.44;97.21;99161.75;5032717;28;20132;-83
2023/01/12 09:49:13;;;;;;;7.65;0.90;;;;;;;7.55;95.89;99144.34;5052843;28;20064;-84
2023/01/12 09:51:49;;;;;;;6.57;1.80;;;;;;;7.77;95.66;99156.41;5059400;28;20052;-84
2023/01/12 09:54:18;;;;;;;3.13;1.42;;;;;;;7.71;96.28;99140.84;5052010;28;20049;-83
2023/01/12 09:56:51;;;;;;;3.22;1.15;;;;;;;7.71;96.42;99138.13;5052413;28;20048;-84
2023/01/12 09:59:32;;;;;;;4.20;1.30;;;;;;;7.88;95.55;99144.41;5052692;28;20148;-84
2023/01/12 10:01:59;;;;;;;4.10;1.15;;;;;;;7.84;95.74;99141.16;5050348;28;20607;-83
2023/01/12 10:04:26;;;;;;;4.90;0.85;;;;;;;7.89;94.53;99137.94;5052008;28;20044;-83
2023/01/12 10:06:52;;;;;;;3.33;0.75;;;;;;;7.86;94.78;99122.03;5055377;28;20068;-81
2023/01/12 10:09:21;;;;;;;4.50;1.13;;;;;;;7.83;95.73;99116.97;5032730;28;20144;-84
2023/01/12 10:11:58;;;;;;;7.40;1.88;;;;;;;7.89;94.97;99117.16;5032072;28;20049;-83
2023/01/12 10:14:56;;;;;;;10.57;1.98;;;;;;;7.77;95.25;99111.22;5031960;28;20042;-83
2023/01/12 10:17:31;;;;;;;7.70;1.05;;;;;;;7.84;96.15;99102.44;5043256;28;20041;-83
2023/01/12 10:20:09;;;;;;;2.85;1.10;;;;;;;7.93;94.89;99115.81;5046439;28;20226;-83
2023/01/12 10:22:41;;;;;;;3.35;0.80;;;;;;;7.94;95.76;99113.94;5044481;28;20052;-83
2023/01/12 10:25:21;;;;;;;6.70;1.65;;;;;;;7.91;97.11;99106.16;5040322;28;20049;-83
2023/01/12 10:27:49;;;;;;;9.90;1.42;;;;;;;7.91;94.70;99114.28;5032014;28;20049;-83
2023/01/12 10:30:18;;;;;;;9.93;1.20;;;;;;;7.98;94.87;99105.31;5032106;28;20046;-84
2023/01/12 10:32:45;;;;;;;8.30;1.50;;;;;;;7.91;94.32;99079.09;5031219;28;20051;-83
2023/01/12 10:35:17;;;;;;;6.75;1.05;;;;;;;8.22;93.98;99105.44;5045208;28;20140;-83
2023/01/12 10:37:48;;;;;;;2.60;0.75;;;;;;;8.16;92.45;99093.47;5039874;28;20051;-83
2023/01/12 10:40:28;;;;;;;10.82;2.47;;;;;;;8.30;92.75;99109.00;5049712;28;20059;-83
2023/01/12 10:43:22;;;;;;;4.18;1.42;;;;;;;8.19;91.79;99074.16;5050610;28;20048;-84
2023/01/12 10:46:05;;;;;;;4.18;2.58;;;;;;;8.35;91.37;99089.53;5051397;28;20056;-83
2023/01/12 10:48:32;;;;;;;6.95;1.95;;;;;;;8.26;91.09;99082.44;5049914;28;20041;-83
2023/01/12 10:51:01;;;;;;;4.30;2.03;;;;;;;8.37;90.26;99090.22;5049482;28;20045;-83
2023/01/12 10:53:36;;;;;;;5.95;1.05;;;;;;;8.43;91.82;99085.94;5050607;28;20044;-84
2023/01/12 10:56:14;;;;;;;3.08;0.88;;;;;;;8.31;89.54;99058.41;5051434;28;20075;-83
2023/01/12 10:58:43;;;;;;;3.53;1.10;;;;;;;8.43;89.55;99084.09;5051194;28;20056;-83
2023/01/12 11:01:14;;;;;;;4.50;1.03;;;;;;;8.39;89.16;99061.06;5051490;28;20059;-83
2023/01/12 11:03:41;;;;;;;1.98;0.70;;;;;;;8.55;89.05;99094.59;5048967;28;20489;-83
2023/01/12 11:06:25;;;;;;;3.63;0.88;;;;;;;8.40;88.14;99049.22;5050142;28;20053;-83
2023/01/12 11:08:51;;;;;;;4.22;1.02;;;;;;;8.57;88.95;99065.47;5050398;28;20053;-83
2023/01/12 11:11:31;;;;;;;2.78;1.33;;;;;;;8.38;89.22;99050.41;5050969;28;20132;-83
2023/01/12 11:13:59;;;;;;;4.97;1.00;;;;;;;8.52;87.53;99076.84;5050230;28;20049;-83
2023/01/12 11:16:31;;;;;;;4.28;0.85;;;;;;;8.39;87.71;99052.13;5050829;28;20067;-83
2023/01/12 11:19:16;;;;;;;2.53;0.65;;;;;;;8.54;88.15;99076.66;5053175;28;20139;-82
2023/01/12 11:21:48;;;;;;;5.45;1.00;;;;;;;8.48;88.55;99068.19;5049484;28;20041;-83
2023/01/12 11:24:31;;;;;;;7.82;1.55;;;;;;;8.50;88.31;99059.88;5049416;28;20055;-82
2023/01/12 11:27:02;;;;;;;2.90;0.93;;;;;;;8.43;88.88;99039.88;5050927;28;20053;-83
2023/01/12 11:29:35;;;;;;;7.00;0.93;;;;;;;8.42;88.67;99040.94;5049633;28;20048;-83
2023/01/12 11:32:08;;;;;;;6.75;1.00;;;;;;;8.50;88.14;99063.44;5049811;28;20057;-82
2023/01/12 11:34:39;;;;;;;4.10;1.23;;;;;;;8.44;87.74;99039.75;5044458;28;20056;-83
2023/01/12 11:37:12;;;;;;;4.53;0.80;;;;;;;8.54;87.37;99054.97;5052225;28;20051;-83
2023/01/12 11:39:40;;;;;;;6.28;0.95;;;;;;;8.57;86.92;99052.75;5042382;28;20061;-81
2023/01/12 11:45:06;;;;;;;6.25;1.10;;;;;;;8.50;86.96;99032.78;5051013;28;20579;-83
2023/01/12 11:47:39;;;;;;;4.43;0.80;;;;;;;8.63;87.73;99051.22;5050370;28;20068;-82
2023/01/12 11:50:14;;;;;;;5.85;1.05;;;;;;;8.62;86.90;99042.22;5050358;28;20057;-82
2023/01/12 11:52:41;;;;;;;4.50;0.90;;;;;;;8.61;88.17;99034.28;5052315;28;20139;-82
2023/01/12 11:55:14;;;;;;;6.00;1.08;;;;;;;8.64;87.99;99029.38;5041397;28;20045;-82
2023/01/12 11:58:07;;;;;;;2.40;1.00;;;;;;;8.58;86.88;99012.94;5050691;28;20098;-82
2023/01/12 12:00:47;;;;;;;6.22;1.20;;;;;;;8.57;87.05;99014.81;5028638;28;20504;-82
2023/01/12 12:03:27;;;;;;;;;;;;;;;8.80;86.61;99025.72;5030280;28;20049;-84
2023/01/12 12:06:05;;;;;;;3.58;0.60;;;;;;;8.92;87.30;99019.91;5052444;28;19947;-82
2023/01/12 12:08:44;;;;;;;3.92;0.82;;;;;;;8.93;85.34;99016.19;5050124;28;20057;-82
2023/01/12 12:11:19;;;;;;;6.47;0.70;;;;;;;8.88;85.32;98996.88;5049643;28;20084;-82
2023/01/12 12:14:01;;;;;;;4.43;0.95;;;;;;;8.94;85.92;98988.03;5049073;28;20484;-82
2023/01/12 12:16:34;;;;;;;3.25;0.40;;;;;;;9.17;84.60;99002.47;5050373;28;20139;-82
2023/01/12 12:19:23;;;;;;;8.90;1.25;;;;;;;9.21;84.16;99000.22;5048990;28;20051;-82
2023/01/12 12:21:56;;;;;;;1.85;0.70;;;;;;;9.18;84.99;98989.75;5046092;28;20053;-82
2023/01/12 12:24:42;;;;;;;3.92;0.68;;;;;;;9.34;84.59;99007.78;5030111;28;20132;-82
2023/01/12 12:27:21;;;;;;;2.50;0.47;;;;;;;9.41;84.04;99006.03;5038344;28;20052;-82
2023/01/12 12:30:12;;;;;;;1.33;0.30;;;;;;;9.38;83.94;98992.84;5053541;28;20056;-82
2023/01/12 12:32:48;;;;;;;1.20;0.32;;;;;;;9.26;83.98;98970.72;5052957;28;20068;-81
2023/01/12 12:35:31;;;;;;;7.18;0.63;;;;;;;9.29;83.84;98989.34;5055406;28;20416;-82
2023/01/12 12:38:09;;;;;;;1.73;0.43;;;;;;;9.32;84.42;98999.81;5037070;28;20049;-82
2023/01/12 12:46:40;;;;;;;1.45;0.70;;;;;;;9.25;84.33;98985.28;5041168;28;20056;-83
2023/01/12 12:49:11;;;;;;;6.72;0.50;;;;;;;9.30;84.01;98996.44;5058169;28;20053;-82
2023/01/12 12:51:40;;;;;;;3.35;0.82;;;;;;;9.08;84.95;98975.56;5053807;28;20055;-82
2023/01/12 12:54:12;;;;;;;1.80;0.63;;;;;;;9.11;84.58;98981.50;5052927;28;20118;-82
2023/01/12 12:56:39;;;;;;;1.83;0.65;;;;;;;9.30;85.46;99007.28;5053520;28;20059;-83
2023/01/12 12:59:06;;;;;;;1.75;0.47;;;;;;;9.37;85.51;99004.69;5053183;28;20540;-83
2023/01/12 13:01:41;;;;;;;0.28;0.22;;;;;;;9.26;84.06;98973.41;5052233;28;20124;-83
2023/01/12 13:04:09;;;;;;;2.60;0.47;;;;;;;9.38;84.24;98990.94;5045823;28;20049;-83
2023/01/12 13:06:38;;;;;;;1.77;0.63;;;;;;;9.39;84.56;98994.50;5053789;28;20152;-82
2023/01/12 13:09:38;;;;;;;2.95;0.63;;;;;;;9.29;84.18;98992.03;5053426;28;20048;-80
2023/01/12 13:12:20;;;;;;;0.32;0.32;;;;;;;9.21;84.54;98986.66;5052783;28;20041;-82
2023/01/12 13:15:16;;;;;;;1.10;0.40;;;;;;;9.25;85.76;98987.16;5053128;28;20048;-83
2023/01/12 13:17:47;;;;;;;1.10;0.60;;;;;;;9.07;85.70;98969.31;5051897;28;20056;-82
2023/01/12 13:20:39;;;;;;;1.60;0.30;;;;;;;9.12;85.50;98969.63;5042561;28;20055;-82
2023/01/12 13:23:39;;;;;;;1.20;0.40;;;;;;;9.03;86.88;98987.81;5019798;28;20057;-82
2023/01/12 13:26:19;;;;;;;;;;;;;;;9.18;87.23;98990.59;5033783;28;20049;-83
2023/01/12 13:28:46;;;;;;;1.60;0.70;;;;;;;9.01;86.65;98964.59;5032813;28;19921;-83
2023/01/12 13:31:31;;;;;;;1.20;0.70;;;;;;;9.08;86.16;98981.84;5036608;28;20399;-82
2023/01/12 13:34:30;;;;;;;0.45;0.40;;;;;;;9.03;86.32;98967.97;5050975;28;20059;-83
2023/01/12 13:37:15;;;;;;;0.85;0.30;;;;;;;8.98;86.86;98965.81;5052727;28;20133;-82
2023/01/12 13:39:51;;;;;;;2.35;0.77;;;;;;;9.00;86.92;98957.50;5051156;28;20051;-82
2023/01/12 13:45:10;;;;;;;2.55;0.75;;;;;;;8.93;87.42;98970.94;5052781;28;20110;-82
2023/01/12 13:47:38;;;;;;;2.55;0.38;;;;;;;8.99;87.23;98970.22;5053911;28;20404;-83
2023/01/12 13:50:05;;;;;;;1.63;0.77;;;;;;;9.02;88.07;98979.88;5051566;28;20045;-83
2023/01/12 13:52:35;;;;;;;2.33;0.43;;;;;;;9.00;89.98;98982.75;5051560;28;20554;-84
2023/01/12 13:55:04;;;;;;;1.15;0.60;;;;;;;8.99;88.10;98994.63;5052676;28;20465;-82
2023/01/12 13:57:31;;;;;;;1.25;0.50;;;;;;;8.84;88.67;98972.00;5052400;28;20064;-82
2023/01/12 13:59:59;;;;;;;0.60;0.40;;;;;;;8.87;88.78;98977.06;5054137;28;20048;-82
2023/01/12 14:02:30;;;;;;;0.95;0.70;;;;;;;8.94;89.50;98994.31;5056388;28;20051;-83
2023/01/12 14:05:06;;;;;;;1.55;0.50;;;;;;;8.81;89.25;98961.53;5051871;28;20061;-82
2023/01/12 14:07:48;;;;;;;0.70;0.30;;;;;;;9.02;88.93;98993.41;5051240;28;20053;-82
2023/01/12 14:10:27;;;;;;;2.00;0.60;;;;;;;8.84;88.56;98966.59;5051936;28;20053;-82
2023/01/12 14:13:22;;;;;;;1.55;0.57;;;;;;;8.94;89.52;98991.59;5051307;28;20139;-83
2023/01/12 14:18:45;;;;;;;0.40;0.30;;;;;;;8.82;89.29;98960.47;5054871;28;20063;-82
2023/01/12 14:21:24;;;;;;;1.02;0.70;;;;;;;8.82;89.73;98958.63;5050846;28;20055;-83
2023/01/12 14:23:52;;;;;;;2.15;0.80;;;;;;;8.84;89.61;98967.41;5040208;28;20665;-83
2023/01/12 14:26:22;;;;;;;4.40;1.27;;;;;;;8.85;89.99;98969.13;5051401;28;20045;-82
2023/01/12 14:28:51;;;;;;;2.67;0.60;;;;;;;8.82;90.48;98958.63;5051604;28;20381;-82
2023/01/12 14:31:32;;;;;;;0.85;0.25;;;;;;;8.77;91.00;98958.31;5055963;28;20128;-82
2023/01/12 14:34:02;;;;;;;0.88;0.40;;;;;;;8.91;90.57;98980.25;5052990;28;20435;-82
2023/01/12 14:36:33;;;;;;;0.68;0.32;;;;;;;8.82;90.25;98955.06;5037700;28;20127;-82
2023/01/12 14:39:06;;;;;;;0.55;0.20;;;;;;;8.91;89.93;98959.41;5049451;28;20079;-83
2023/01/12 14:47:08;;;;;;;4.20;1.17;;;;;;;8.88;90.85;98980.63;5052847;28;20515;-84
2023/01/12 14:49:36;;;;;;;0.82;0.30;;;;;;;8.81;90.03;98956.09;5051339;28;20052;-83
2023/01/12 14:52:24;;;;;;;0.85;0.28;;;;;;;8.84;90.74;98962.00;5051411;28;20051;-84
2023/01/12 14:54:53;;;;;;;2.22;0.32;;;;;;;8.88;90.61;98965.19;5052471;28;20052;-84
2023/01/12 14:57:23;;;;;;;0.88;0.40;;;;;;;8.76;90.59;98947.66;5046163;28;20403;-84
2023/01/12 14:59:50;;;;;;;1.00;0.68;;;;;;;8.93;90.35;98979.06;5045870;28;20053;-84
2023/01/12 15:02:32;;;;;;;0.98;0.43;;;;;;;8.91;91.55;98974.84;5047251;28;20046;-84
2023/01/12 15:05:02;;;;;;;0.75;0.50;;;;;;;8.73;90.92;98954.28;5051032;28;20412;-84
2023/01/12 15:07:32;;;;;;;;;;;;;;;8.91;90.48;98969.41;5047033;28;20053;-84
2023/01/12 15:10:02;;;;;;;1.75;0.40;;;;;;;8.86;91.48;98975.38;5047253;28;20319;-84
2023/01/12 15:12:51;;;;;;;2.67;0.82;;;;;;;8.70;91.58;98946.47;5045505;28;20076;-84
2023/01/12 15:15:20;;;;;;;1.30;0.60;;;;;;;8.80;91.08;98951.69;5050335;28;20132;-85
2023/01/12 15:26:14;;;;;;;0.30;0.30;;;;;;;8.85;91.62;98965.53;5049869;28;20087;-85
2023/01/12 15:28:44;;;;;;;1.95;0.50;;;;;;;8.82;91.96;98965.91;5049801;28;20408;-85
2023/01/12 15:31:16;;;;;;;;;;;;;;;8.85;92.25;98969.13;5051078;28;20564;-84
2023/01/12 15:33:42;;;;;;;0.98;0.50;;;;;;;8.74;92.48;98952.41;5050386;28;19947;-85
2023/01/12 15:36:09;;;;;;;1.75;0.40;;;;;;;8.80;91.70;98970.66;5051405;28;20044;-85
2023/01/12 15:38:36;;;;;;;2.38;0.40;;;;;;;8.69;92.37;98950.25;5056399;28;20056;-85
2023/01/12 15:41:04;;;;;;;1.05;0.57;;;;;;;8.73;91.82;98959.72;5051931;28;20088;-85
2023/01/12 15:43:32;;;;;;;1.42;0.40;;;;;;;8.84;91.20;98961.16;5037862;28;20102;-85
2023/01/12 15:46:02;;;;;;;1.05;0.40;;;;;;;8.83;90.82;98957.59;5063301;28;20503;-85
2023/01/12 15:48:28;;;;;;;6.50;0.85;;;;;;;8.82;91.51;98957.78;5050724;28;20156;-85
2023/01/12 15:50:56;;;;;;;1.38;0.50;;;;;;;8.79;91.49;98959.00;5060156;28;20052;-84
2023/01/12 15:53:26;;;;;;;2.35;1.15;;;;;;;8.90;91.32;98979.44;5067343;28;20055;-85
2023/01/12 15:55:52;;;;;;;1.20;0.38;;;;;;;8.82;91.72;98953.22;5053817;28;20151;-85
2023/01/12 15:58:20;;;;;;;6.20;0.63;;;;;;;8.89;91.58;98966.03;5050882;28;20051;-85
2023/01/12 16:00:49;;;;;;;1.75;0.68;;;;;;;8.72;92.30;98946.34;5050508;28;20053;-84
2023/01/12 16:03:17;;;;;;;1.40;0.50;;;;;;;8.72;91.53;98938.22;5051737;28;20135;-85
2023/01/12 16:05:43;;;;;;;1.13;0.45;;;;;;;8.75;92.63;98948.69;5055073;28;20110;-85
2023/01/12 16:08:12;;;;;;;0.35;0.30;;;;;;;8.66;92.19;98939.75;5052351;28;20075;-86
2023/01/12 16:11:07;;;;;;;0.88;0.73;;;;;;;8.82;91.50;98960.47;5050135;28;20052;-86
2023/01/12 16:13:26;;;;;;;0.55;0.40;;;;;;;8.75;91.46;98944.09;5032344;28;20052;-86
2023/01/12 16:15:54;;;;;;;2.17;0.60;;;;;;;8.82;92.50;98955.91;5034789;28;20050;-85
2023/01/12 16:18:20;;;;;;;2.08;0.50;;;;;;;8.81;92.76;98964.25;5045255;28;20489;-86
2023/01/12 16:20:58;;;;;;;0.77;0.50;;;;;;;8.78;93.24;98956.47;5055116;28;20059;-87
2023/01/12 16:23:24;;;;;;;1.80;0.50;;;;;;;8.68;93.52;98937.69;5060186;28;20499;-81
2023/01/12 16:25:55;;;;;;;3.55;0.80;;;;;;;8.78;92.94;98957.28;5052419;28;20063;-81
2023/01/12 16:28:21;;;;;;;1.63;0.57;;;;;;;8.76;93.45;98963.91;5045733;28;20080;-82
2023/01/12 16:30:48;;;;;;;2.10;0.68;;;;;;;8.72;95.34;98952.59;5053731;28;20037;-82
2023/01/12 16:33:16;;;;;;;1.65;0.45;;;;;;;8.66;96.56;98948.72;5052316;28;20053;-82
2023/01/12 16:35:44;;;;;;;0.30;0.30;;;;;;;8.64;96.98;98960.75;5052529;28;20416;-81
2023/01/12 16:38:12;;;;;;;2.80;0.73;;;;;;;8.54;97.55;98962.84;5059064;28;20057;-82
2023/01/12 16:40:40;;;;;;;1.45;0.63;;;;;;;8.45;97.17;98938.50;5038994;28;20052;-82
2023/01/12 16:43:06;;;;;;;1.25;0.73;;;;;;;8.64;97.51;98971.59;5032418;28;20056;-82
2023/01/12 16:45:33;;;;;;;1.00;0.63;;;;;;;8.44;97.65;98934.09;5041367;28;20049;-82
2023/01/12 16:48:01;;;;;;;3.70;0.70;;;;;;;8.61;98.07;98969.22;5053148;28;20052;-82
2023/01/12 16:50:28;;;;;;;5.45;0.68;;;;;;;8.41;97.62;98947.97;5053674;28;20060;-82
2023/01/12 16:52:55;;;;;;;5.15;0.65;;;;;;;8.48;97.09;98961.69;5052255;28;20059;-82
2023/01/12 16:55:22;;;;;;;2.83;0.85;;;;;;;8.40;98.13;98931.88;5036026;28;20404;-82
2023/01/12 16:57:48;;;;;;;4.15;0.80;;;;;;;8.49;97.03;98949.81;5050929;28;20123;-82
2023/01/12 17:00:15;;;;;;;4.03;0.50;;;;;;;8.47;97.92;98939.16;5050006;28;20128;-82
2023/01/12 17:02:42;;;;;;;2.78;0.73;;;;;;;8.55;95.99;98929.31;5051792;28;20385;-82
2023/01/12 17:05:09;;;;;;;2.40;0.63;;;;;;;8.49;96.86;98934.41;5047331;28;20571;-81
2023/01/12 17:07:37;;;;;;;4.57;1.08;;;;;;;8.38;96.46;98928.50;5051102;28;20057;-81
2023/01/12 17:10:04;;;;;;;2.35;0.70;;;;;;;8.52;96.00;98933.22;5050656;28;20055;-82
2023/01/12 17:12:30;;;;;;;2.45;1.23;;;;;;;8.57;96.46;98943.53;5049182;28;20088;-81
2023/01/12 17:14:57;;;;;;;1.70;0.50;;;;;;;8.46;96.05;98944.75;5048395;28;20163;-81
2023/01/12 17:17:24;;;;;;;0.90;0.75;;;;;;;8.46;95.35;98925.78;5042226;28;20053;-80
2023/01/12 17:19:50;;;;;;;2.13;0.93;;;;;;;8.54;95.53;98933.88;5048772;28;20076;-82
2023/01/12 17:22:17;;;;;;;7.07;1.38;;;;;;;8.55;95.90;98940.13;5049766;28;20543;-81
2023/01/12 17:24:45;;;;;;;3.47;1.05;;;;;;;8.54;94.82;98933.06;5050391;28;20136;-81
2023/01/12 17:27:12;;;;;;;0.85;0.50;;;;;;;8.57;95.39;98932.69;5050035;28;20063;-82
2023/01/12 17:29:38;;;;;;;3.83;1.02;;;;;;;8.56;94.42;98934.53;5049447;28;20064;-81
2023/01/12 17:32:05;;;;;;;5.65;1.13;;;;;;;8.42;94.96;98914.44;5049592;28;20080;-81
2023/01/12 17:34:33;;;;;;;4.18;1.60;;;;;;;8.58;95.85;98937.94;5048350;28;20051;-80
2023/01/12 17:37:02;;;;;;;4.30;1.23;;;;;;;8.40;95.65;98916.50;5050217;28;20053;-81
2023/01/12 17:39:29;;;;;;;5.05;0.98;;;;;;;8.50;95.96;98929.84;5049601;28;20105;-81
2023/01/12 17:44:41;;;;;;;2.10;1.08;;;;;;;8.50;95.41;98927.97;5049165;28;20070;-81
